createdAt,value
2023-03-21T00:03:12.988Z,50.05
2023-03-21T00:08:19.012Z,38.10
2023-03-21T00:13:23.362Z,49.13
2023-03-21T00:18:28.684Z,45.28
2023-03-21T00:23:34.860Z,42.40
2023-03-21T00:28:40.602Z,57.83
2023-03-21T00:33:44.996Z,41.92
2023-03-21T00:38:50.713Z,37.70
2023-03-21T00:43:55.823Z,41.00
2023-03-21T00:49:00.324Z,41.72
2023-03-21T00:54:08.037Z,41.63
2023-03-21T00:59:12.127Z,39.42
2023-03-21T01:04:17.135Z,36.90
2023-03-21T01:09:25.003Z,36.78
2023-03-21T01:14:29.587Z,39.75
2023-03-21T01:19:50.239Z,37.35
2023-03-21T01:25:08.761Z,36.30
2023-03-21T01:30:24.776Z,37.90
2023-03-21T01:35:32.104Z,37.85
2023-03-21T01:40:45.274Z,36.40
2023-03-21T01:46:32.303Z,39.03
2023-03-21T01:52:26.338Z,41.35
2023-03-21T01:57:52.139Z,41.92
2023-03-21T02:03:17.034Z,36.95
2023-03-21T02:08:39.919Z,33.80
2023-03-21T02:13:55.861Z,33.28
2023-03-21T02:19:34.193Z,31.73
2023-03-21T02:25:21.356Z,31.23
2023-03-21T02:30:52.363Z,31.45
2023-03-21T02:36:27.255Z,28.85
2023-03-21T02:41:44.447Z,30.70
2023-03-21T02:47:03.170Z,30.17
2023-03-21T02:52:18.701Z,31.13
2023-03-21T02:57:41.686Z,30.00
2023-03-21T03:02:54.650Z,32.92
2023-03-21T03:08:20.519Z,32.92
2023-03-21T03:13:43.402Z,31.17
2023-03-21T03:18:53.996Z,33.13
2023-03-21T03:24:01.444Z,38.20
2023-03-21T03:29:13.599Z,34.78
2023-03-21T03:34:21.931Z,36.50
2023-03-21T03:39:33.100Z,37.35
2023-03-21T03:44:39.292Z,34.63
2023-03-21T03:49:51.986Z,34.53
2023-03-21T03:54:57.386Z,34.83
2023-03-21T04:00:11.026Z,37.53
2023-03-21T04:05:22.049Z,39.22
2023-03-21T04:10:26.500Z,36.20
2023-03-21T04:15:32.949Z,36.50
2023-03-21T04:20:49.591Z,35.78
2023-03-21T04:25:56.994Z,32.05
2023-03-21T04:31:26.026Z,32.08
2023-03-21T04:36:43.251Z,36.47
2023-03-21T04:41:48.261Z,40.92
2023-03-21T04:46:54.125Z,40.78
2023-03-21T04:51:58.299Z,46.95
2023-03-21T04:57:02.988Z,39.42
2023-03-21T05:02:08.618Z,39.38
2023-03-21T05:07:13.163Z,43.25
2023-03-21T05:12:19.575Z,46.67
2023-03-21T05:17:25.256Z,41.95
2023-03-21T05:22:29.819Z,45.97
2023-03-21T05:27:35.975Z,45.95
2023-03-21T05:32:47.243Z,47.35
2023-03-21T05:37:51.617Z,47.88
2023-03-21T05:42:56.036Z,43.45
2023-03-21T05:48:03.543Z,41.30
2023-03-21T05:53:13.843Z,40.38
2023-03-21T05:58:19.167Z,39.80
2023-03-21T06:03:30.433Z,35.63
2023-03-21T06:08:44.416Z,32.92
2023-03-21T06:13:48.980Z,35.35
2023-03-21T06:18:55.016Z,28.45
2023-03-21T06:24:19.639Z,28.23
2023-03-21T06:29:24.318Z,29.38
2023-03-21T06:34:31.187Z,33.28
2023-03-21T06:39:35.873Z,33.95
2023-03-21T06:44:40.707Z,36.35
2023-03-21T06:54:56.518Z,33.15
2023-03-21T07:00:01.011Z,33.70
2023-03-21T07:05:08.222Z,29.95
2023-03-21T07:10:14.032Z,29.23
2023-03-21T07:15:38.307Z,28.27
2023-03-21T07:20:51.228Z,26.17
2023-03-21T07:25:55.951Z,30.55
2023-03-21T07:31:01.912Z,28.73
2023-03-21T07:36:12.766Z,25.85
2023-03-21T07:46:28.417Z,28.27
2023-03-21T07:51:35.611Z,30.75
2023-03-21T07:56:40.210Z,29.75
2023-03-21T08:01:44.532Z,30.13
2023-03-21T08:06:51.709Z,30.75
2023-03-21T08:11:56.251Z,31.27
2023-03-21T08:17:00.597Z,32.05
2023-03-21T08:22:06.890Z,26.92
2023-03-21T08:27:11.408Z,28.45
2023-03-21T08:32:15.744Z,29.75
2023-03-21T08:37:21.306Z,32.67
2023-03-21T08:42:25.494Z,30.85
2023-03-21T08:47:29.684Z,33.10
2023-03-21T08:52:35.804Z,36.47
2023-03-21T08:57:40.400Z,39.47
2023-03-21T09:02:47.047Z,39.17
2023-03-21T09:07:53.395Z,54.22
2023-03-21T09:12:58.245Z,54.85
2023-03-21T09:18:13.316Z,39.35
2023-03-21T09:23:19.948Z,44.83
2023-03-21T09:28:25.285Z,32.17
2023-03-21T09:33:30.356Z,37.75
2023-03-21T09:38:36.805Z,28.10
2023-03-21T09:43:52.745Z,29.13
2023-03-21T09:49:00.511Z,25.17
2023-03-21T09:54:13.672Z,23.27
2023-03-21T09:59:25.290Z,25.75
2023-03-21T10:04:29.803Z,23.17
2023-03-21T10:09:38.886Z,22.98
2023-03-21T10:14:47.094Z,32.50
2023-03-21T10:20:00.226Z,29.33
2023-03-21T10:25:07.196Z,24.30
2023-03-21T10:30:21.542Z,23.70
2023-03-21T10:35:25.758Z,31.52
2023-03-21T10:40:33.020Z,33.60
2023-03-21T10:45:38.393Z,26.52
2023-03-21T10:50:43.909Z,26.63
2023-03-21T10:55:53.992Z,28.85
2023-03-21T11:01:02.486Z,24.88
2023-03-21T11:06:09.947Z,25.38
2023-03-21T11:11:22.769Z,24.55
2023-03-21T11:16:32.016Z,25.27
2023-03-21T11:21:38.663Z,22.85
2023-03-21T11:26:46.120Z,80.40
2023-03-21T11:31:50.274Z,38.42
2023-03-21T11:37:01.442Z,41.15
2023-03-21T11:42:08.196Z,25.38
2023-03-21T11:47:13.143Z,18.60
2023-03-21T11:52:31.481Z,18.45
2023-03-21T11:57:45.522Z,22.52
2023-03-21T12:03:12.597Z,16.98
2023-03-21T12:08:32.025Z,30.20
2023-03-21T12:13:53.551Z,16.90
2023-03-21T12:19:18.192Z,16.67
2023-03-21T12:24:25.130Z,14.95
2023-03-21T12:29:53.105Z,17.38
2023-03-21T12:35:17.259Z,26.60
2023-03-21T12:40:37.520Z,29.17
2023-03-21T12:45:47.956Z,21.58
2023-03-21T12:50:56.415Z,24.33
2023-03-21T12:56:04.396Z,20.88
2023-03-21T13:01:12.322Z,32.55
2023-03-21T13:06:21.974Z,20.67
2023-03-21T13:16:38.686Z,21.17
2023-03-21T13:21:52.195Z,27.13
2023-03-21T13:27:07.697Z,25.17
2023-03-21T13:32:20.656Z,19.95
2023-03-21T13:37:28.054Z,25.48
2023-03-21T13:42:35.117Z,19.27
2023-03-21T13:47:52.326Z,25.30
2023-03-21T13:53:21.116Z,23.08
2023-03-21T13:58:32.983Z,26.13
2023-03-21T14:03:39.542Z,25.48
2023-03-21T14:08:47.366Z,41.40
2023-03-21T14:13:51.978Z,25.15
2023-03-21T14:19:00.970Z,21.38
2023-03-21T14:24:07.083Z,25.30
2023-03-21T14:29:26.227Z,27.17
2023-03-21T14:39:37.655Z,25.95
2023-03-21T14:44:58.650Z,28.85
2023-03-21T14:50:05.398Z,26.98
2023-03-21T14:55:17.901Z,24.38
2023-03-21T15:00:26.682Z,23.17
2023-03-21T15:05:37.342Z,24.45
2023-03-21T15:10:42.172Z,23.70
2023-03-21T15:15:48.013Z,26.88
2023-03-21T15:20:56.506Z,26.98
2023-03-21T15:26:04.326Z,22.55
2023-03-21T15:31:22.975Z,30.00
2023-03-21T15:36:30.251Z,39.42
2023-03-21T15:41:35.000Z,29.98
2023-03-21T15:46:44.545Z,31.15
2023-03-21T15:51:53.725Z,26.42
2023-03-21T15:57:01.458Z,24.47
2023-03-21T16:02:07.428Z,27.77
2023-03-21T16:07:17.862Z,27.00
2023-03-21T16:12:22.268Z,26.30
2023-03-21T16:17:35.761Z,27.13
2023-03-21T16:22:41.890Z,34.05
2023-03-21T16:27:46.349Z,36.60
2023-03-21T16:32:51.718Z,35.38
2023-03-21T16:37:57.732Z,37.38
2023-03-21T16:43:02.450Z,32.28
2023-03-21T16:48:09.153Z,40.17
2023-03-21T16:53:15.111Z,35.78
2023-03-21T16:58:19.549Z,62.22
2023-03-21T17:03:24.112Z,37.60
2023-03-21T17:08:30.695Z,89.82
2023-03-21T17:13:35.444Z,43.50
2023-03-21T17:18:39.696Z,44.47
2023-03-21T17:23:45.760Z,44.53
2023-03-21T17:28:50.570Z,46.95
2023-03-21T17:33:55.137Z,45.92
2023-03-21T17:39:01.108Z,39.03
2023-03-21T17:44:05.987Z,37.13
2023-03-21T17:49:14.784Z,43.80
2023-03-21T17:54:20.591Z,39.60
2023-03-21T17:59:26.216Z,37.65
2023-03-21T18:04:31.110Z,40.70
2023-03-21T18:09:36.843Z,54.67
2023-03-21T18:14:41.228Z,66.20
2023-03-21T18:19:46.683Z,56.17
2023-03-21T18:24:52.403Z,39.10
2023-03-21T18:35:22.108Z,33.42
2023-03-21T18:40:29.156Z,40.40
2023-03-21T18:45:34.119Z,51.53
2023-03-21T18:50:38.548Z,47.70
2023-03-21T18:55:47.242Z,51.92
2023-03-21T19:00:54.093Z,50.73
2023-03-21T19:06:00.039Z,59.97
2023-03-21T19:11:07.142Z,53.78
2023-03-21T19:16:11.854Z,69.22
2023-03-21T19:21:17.205Z,94.85
2023-03-21T19:26:23.405Z,55.58
2023-03-21T19:31:28.041Z,54.90
2023-03-21T19:36:34.644Z,66.00
2023-03-21T19:41:41.217Z,65.72
2023-03-21T19:46:46.121Z,68.63
2023-03-21T19:51:51.446Z,59.30
2023-03-21T19:56:58.146Z,63.30
2023-03-21T20:02:25.539Z,67.60
2023-03-21T20:07:27.994Z,98.63
2023-03-21T20:12:33.957Z,90.03
2023-03-21T20:17:39.004Z,71.05
2023-03-21T20:23:05.635Z,91.72
2023-03-21T20:28:24.572Z,63.40
2023-03-21T20:33:31.457Z,65.15
2023-03-21T20:38:37.732Z,78.68
2023-03-21T20:44:39.138Z,139.30
2023-03-21T20:49:08.113Z,77.30
2023-03-21T20:54:12.758Z,78.70
2023-03-21T20:59:26.438Z,69.47
2023-03-21T21:05:12.273Z,66.63
2023-03-21T21:09:57.930Z,75.28
2023-03-21T21:15:04.248Z,69.97
2023-03-21T21:20:17.870Z,77.50
2023-03-21T21:25:24.204Z,70.00
2023-03-21T21:30:34.656Z,64.15
2023-03-21T21:35:38.875Z,62.30
2023-03-21T21:40:43.172Z,66.20
2023-03-21T21:45:50.494Z,82.88
2023-03-21T21:50:55.573Z,64.22
2023-03-21T21:56:02.238Z,60.97
2023-03-21T22:01:08.663Z,63.95
2023-03-21T22:06:13.766Z,65.75
2023-03-21T22:11:18.785Z,62.47
2023-03-21T22:16:24.445Z,61.97
2023-03-21T22:21:28.809Z,65.75
2023-03-21T22:26:33.733Z,60.15
2023-03-21T22:31:42.843Z,54.95
2023-03-21T22:36:47.356Z,56.27
2023-03-21T22:41:51.782Z,191.93
2023-03-21T22:46:57.349Z,57.22
2023-03-21T22:52:03.455Z,58.22
2023-03-21T22:57:08.759Z,52.05
2023-03-21T23:02:15.270Z,49.40
2023-03-21T23:07:19.817Z,51.20
2023-03-21T23:12:24.239Z,57.75
2023-03-21T23:17:30.109Z,54.72
2023-03-21T23:22:35.775Z,57.85
2023-03-21T23:27:40.370Z,52.25
2023-03-21T23:32:45.940Z,53.50
2023-03-21T23:37:52.788Z,51.47
2023-03-21T23:42:57.446Z,51.08
2023-03-21T23:48:02.998Z,51.25
2023-03-21T23:53:07.396Z,50.13
2023-03-21T23:58:12.255Z,52.72
